createdAt,value
2018-12-22T00:01:17.175Z,11.40
2018-12-22T00:03:44.683Z,11.31
2018-12-22T00:06:12.261Z,11.29
2018-12-22T00:08:40.064Z,11.18
2018-12-22T00:11:07.730Z,11.27
2018-12-22T00:13:35.340Z,11.23
2018-12-22T00:16:03.020Z,11.33
2018-12-22T00:18:30.604Z,11.40
2018-12-22T00:20:57.977Z,11.39
2018-12-22T00:23:25.537Z,11.41
2018-12-22T00:25:53.027Z,11.39
2018-12-22T00:28:22.245Z,11.53
2018-12-22T00:30:50.312Z,11.59
2018-12-22T00:33:17.884Z,11.51
2018-12-22T00:35:45.260Z,11.44
2018-12-22T00:38:12.836Z,11.56
2018-12-22T00:40:40.312Z,11.78
2018-12-22T00:43:07.980Z,11.89
2018-12-22T00:45:35.347Z,11.87
2018-12-22T00:48:02.819Z,11.76
2018-12-22T00:50:30.440Z,11.63
2018-12-22T00:52:58.027Z,11.67
2018-12-22T00:55:25.549Z,11.70
2018-12-22T00:57:53.224Z,11.65
2018-12-22T01:00:20.823Z,11.55
2018-12-22T01:02:48.358Z,11.50
2018-12-22T01:05:15.866Z,11.37
2018-12-22T01:07:43.379Z,11.36
2018-12-22T01:10:10.876Z,11.26
2018-12-22T01:12:43.476Z,11.36
2018-12-22T01:15:10.877Z,11.27
2018-12-22T01:17:38.440Z,11.20
2018-12-22T01:20:07.322Z,11.29
2018-12-22T01:22:35.006Z,11.34
2018-12-22T01:25:02.627Z,11.43
2018-12-22T01:27:30.134Z,11.43
2018-12-22T01:29:57.725Z,11.47
2018-12-22T01:32:25.287Z,11.38
2018-12-22T01:34:52.681Z,11.32
2018-12-22T01:37:20.176Z,11.25
2018-12-22T01:39:47.672Z,11.12
2018-12-22T01:42:15.140Z,11.03
2018-12-22T01:44:42.627Z,11.01
2018-12-22T01:47:10.157Z,10.99
2018-12-22T01:49:37.763Z,10.82
2018-12-22T01:52:05.150Z,10.69
2018-12-22T01:54:32.731Z,10.61
2018-12-22T01:57:00.348Z,10.63
2018-12-22T01:59:27.920Z,10.53
2018-12-22T02:01:55.376Z,10.60
2018-12-22T02:04:22.968Z,10.63
2018-12-22T02:06:50.440Z,10.53
2018-12-22T02:09:17.944Z,10.38
2018-12-22T02:11:45.432Z,10.29
2018-12-22T02:14:12.896Z,10.33
2018-12-22T02:16:40.400Z,10.21
2018-12-22T02:19:07.972Z,10.31
2018-12-22T02:21:35.296Z,10.29
2018-12-22T02:24:02.832Z,10.48
2018-12-22T02:26:30.600Z,10.51
2018-12-22T02:28:58.256Z,10.51
2018-12-22T02:31:25.842Z,10.45
2018-12-22T02:33:53.442Z,10.45
2018-12-22T02:36:20.867Z,10.66
2018-12-22T02:38:48.381Z,10.58
2018-12-22T02:41:15.986Z,10.66
2018-12-22T02:43:43.633Z,10.77
2018-12-22T02:46:11.206Z,10.90
2018-12-22T02:48:39.088Z,10.90
2018-12-22T02:51:06.619Z,10.87
2018-12-22T02:53:34.105Z,10.89
2018-12-22T02:56:01.878Z,10.92
2018-12-22T02:58:29.266Z,11.07
2018-12-22T03:00:56.769Z,11.21
2018-12-22T03:03:24.257Z,11.33
2018-12-22T03:05:51.651Z,11.47
2018-12-22T03:08:19.141Z,11.54
2018-12-22T03:10:46.657Z,11.45
2018-12-22T03:13:14.249Z,11.29
2018-12-22T03:15:41.763Z,11.33
2018-12-22T03:18:09.340Z,11.26
2018-12-22T03:20:36.666Z,11.30
2018-12-22T03:23:04.147Z,11.28
2018-12-22T03:25:31.817Z,11.19
2018-12-22T03:27:59.309Z,11.09
2018-12-22T03:30:26.923Z,11.01
2018-12-22T03:32:54.539Z,11.12
2018-12-22T03:35:22.184Z,10.99
2018-12-22T03:37:52.663Z,10.99
2018-12-22T03:40:20.187Z,10.84
2018-12-22T03:42:47.661Z,10.88
2018-12-22T03:45:15.035Z,11.06
2018-12-22T03:47:42.649Z,11.10
2018-12-22T03:50:10.181Z,11.08
2018-12-22T03:52:37.623Z,10.92
2018-12-22T03:55:05.301Z,11.13
2018-12-22T03:57:32.785Z,11.16
2018-12-22T04:00:00.407Z,11.08
2018-12-22T04:02:27.936Z,10.95
2018-12-22T04:04:55.467Z,10.77
2018-12-22T04:07:22.969Z,10.76
2018-12-22T04:09:50.481Z,10.85
2018-12-22T04:12:18.041Z,10.91
2018-12-22T04:14:45.904Z,10.96
2018-12-22T04:17:13.531Z,11.04
2018-12-22T04:19:41.168Z,11.09
2018-12-22T04:22:08.512Z,11.06
2018-12-22T04:24:36.016Z,11.09
2018-12-22T04:27:03.426Z,11.06
2018-12-22T04:29:34.001Z,11.21
2018-12-22T04:32:00.350Z,11.15
2018-12-22T04:34:27.893Z,11.10
2018-12-22T04:36:55.481Z,11.06
2018-12-22T04:39:23.008Z,11.11
2018-12-22T04:41:50.437Z,11.07
2018-12-22T04:44:18.121Z,11.10
2018-12-22T04:46:45.912Z,11.16
2018-12-22T04:49:13.497Z,11.21
2018-12-22T04:51:41.198Z,11.25
2018-12-22T04:54:08.704Z,11.33
2018-12-22T04:56:36.362Z,11.30
2018-12-22T04:59:04.180Z,11.24
2018-12-22T05:01:31.752Z,11.25
2018-12-22T05:03:59.368Z,11.40
2018-12-22T05:06:27.001Z,11.36
2018-12-22T05:08:54.400Z,11.31
2018-12-22T05:11:22.350Z,11.24
2018-12-22T05:13:49.725Z,11.22
2018-12-22T05:16:17.223Z,11.31
2018-12-22T05:18:44.948Z,11.29
2018-12-22T05:21:12.408Z,11.35
2018-12-22T05:23:40.175Z,11.40
2018-12-22T05:26:07.735Z,11.37
2018-12-22T05:28:35.335Z,11.38
2018-12-22T05:31:02.956Z,11.47
2018-12-22T05:33:30.646Z,11.45
2018-12-22T05:35:57.970Z,11.34
2018-12-22T05:38:25.541Z,11.32
2018-12-22T05:40:53.163Z,11.23
2018-12-22T05:43:20.671Z,11.29
2018-12-22T05:45:48.237Z,11.36
2018-12-22T05:48:15.803Z,11.29
2018-12-22T05:50:43.403Z,11.46
2018-12-22T05:53:10.987Z,11.36
2018-12-22T05:55:38.319Z,11.22
2018-12-22T05:58:05.949Z,11.14
2018-12-22T06:00:33.409Z,11.18
2018-12-22T06:03:01.202Z,11.20
2018-12-22T06:05:28.647Z,11.33
2018-12-22T06:07:56.236Z,11.37
2018-12-22T06:10:23.831Z,11.43
2018-12-22T06:12:51.556Z,11.55
2018-12-22T06:15:19.265Z,11.46
2018-12-22T06:17:46.739Z,11.31
2018-12-22T06:20:14.207Z,11.28
2018-12-22T06:22:41.803Z,11.21
2018-12-22T06:25:09.205Z,11.14
2018-12-22T06:27:36.887Z,11.02
2018-12-22T06:30:09.102Z,10.94
2018-12-22T06:32:34.259Z,10.86
2018-12-22T06:35:01.887Z,10.82
2018-12-22T06:37:29.316Z,10.75
2018-12-22T06:39:56.749Z,10.79
2018-12-22T06:42:24.321Z,10.76
2018-12-22T06:44:51.804Z,10.60
2018-12-22T06:47:19.187Z,10.74
2018-12-22T06:49:46.663Z,10.84
2018-12-22T06:52:14.178Z,10.89
2018-12-22T06:54:41.764Z,10.94
2018-12-22T06:57:09.319Z,11.00
2018-12-22T06:59:36.773Z,11.16
2018-12-22T07:02:04.378Z,11.17
2018-12-22T07:04:31.885Z,11.09
2018-12-22T07:06:59.592Z,11.02
2018-12-22T07:09:27.053Z,10.94
2018-12-22T07:11:54.653Z,10.89
2018-12-22T07:14:22.127Z,10.95
2018-12-22T07:16:49.572Z,10.88
2018-12-22T07:19:16.897Z,10.88
2018-12-22T07:21:44.604Z,11.02
2018-12-22T07:24:12.017Z,11.08
2018-12-22T07:26:39.601Z,11.13
2018-12-22T07:29:07.126Z,11.21
2018-12-22T07:31:34.611Z,10.99
2018-12-22T07:34:02.155Z,11.02
2018-12-22T07:36:29.932Z,10.92
2018-12-22T07:38:57.417Z,10.92
2018-12-22T07:41:24.963Z,11.01
2018-12-22T07:43:52.441Z,11.01
2018-12-22T07:46:20.099Z,11.19
2018-12-22T07:48:47.730Z,11.37
2018-12-22T07:51:15.364Z,11.44
2018-12-22T07:53:43.086Z,11.51
2018-12-22T07:56:10.586Z,11.51
2018-12-22T07:58:38.068Z,11.51
2018-12-22T08:01:05.728Z,11.52
2018-12-22T08:03:33.219Z,11.60
2018-12-22T08:06:00.881Z,11.71
2018-12-22T08:08:28.387Z,11.72
2018-12-22T08:10:56.013Z,11.75
2018-12-22T08:13:23.502Z,11.67
2018-12-22T08:15:50.995Z,11.60
2018-12-22T08:18:18.443Z,11.58
2018-12-22T08:20:46.168Z,11.82
2018-12-22T08:23:13.629Z,11.87
2018-12-22T08:25:41.103Z,11.77
2018-12-22T08:28:08.583Z,11.79
2018-12-22T08:30:43.447Z,11.68
2018-12-22T08:33:05.751Z,11.65
2018-12-22T08:35:33.216Z,11.78
2018-12-22T08:38:00.700Z,11.87
2018-12-22T08:40:28.326Z,11.97
2018-12-22T08:42:55.736Z,12.05
2018-12-22T08:45:23.116Z,12.10
2018-12-22T08:47:50.435Z,12.18
2018-12-22T08:50:17.956Z,12.33
2018-12-22T08:52:45.412Z,12.38
2018-12-22T08:55:12.896Z,12.32
2018-12-22T08:57:40.616Z,12.39
2018-12-22T09:00:11.439Z,12.35
2018-12-22T09:02:39.007Z,12.36
2018-12-22T09:05:06.952Z,12.25
2018-12-22T09:07:34.532Z,12.21
2018-12-22T09:10:02.192Z,12.23
2018-12-22T09:12:29.816Z,12.26
2018-12-22T09:14:57.276Z,12.28
2018-12-22T09:17:24.751Z,12.18
2018-12-22T09:19:52.331Z,12.12
2018-12-22T09:22:19.953Z,12.34
2018-12-22T09:24:47.407Z,12.57
2018-12-22T09:27:14.920Z,12.81
2018-12-22T09:29:42.411Z,12.92
2018-12-22T09:32:09.880Z,13.13
2018-12-22T09:34:37.250Z,13.13
2018-12-22T09:37:06.826Z,13.07
2018-12-22T09:39:34.448Z,12.93
2018-12-22T09:42:02.141Z,12.69
2018-12-22T09:44:29.632Z,12.34
2018-12-22T09:46:57.088Z,12.12
2018-12-22T09:49:24.623Z,12.03
2018-12-22T09:51:52.071Z,11.94
2018-12-22T09:54:19.596Z,11.80
2018-12-22T09:56:47.168Z,11.71
2018-12-22T09:59:14.743Z,11.54
2018-12-22T10:01:42.371Z,11.48
2018-12-22T10:04:09.873Z,11.54
2018-12-22T10:06:37.549Z,11.59
2018-12-22T10:09:06.626Z,11.59
2018-12-22T10:11:34.173Z,11.45
2018-12-22T10:14:01.874Z,11.49
2018-12-22T10:16:29.241Z,11.48
2018-12-22T10:18:56.810Z,11.35
2018-12-22T10:21:24.297Z,11.47
2018-12-22T10:23:51.888Z,11.77
2018-12-22T10:26:19.416Z,11.93
2018-12-22T10:28:46.919Z,11.83
2018-12-22T10:31:18.096Z,11.50
2018-12-22T10:33:44.279Z,11.27
2018-12-22T10:36:11.768Z,11.13
2018-12-22T10:38:39.249Z,11.01
2018-12-22T10:41:07.030Z,10.87
2018-12-22T10:43:34.962Z,10.66
2018-12-22T10:46:02.312Z,10.57
2018-12-22T10:48:29.824Z,10.53
2018-12-22T10:50:57.376Z,10.45
2018-12-22T10:53:24.701Z,10.56
2018-12-22T10:55:52.192Z,10.47
2018-12-22T10:58:19.541Z,10.52
2018-12-22T11:00:47.160Z,10.54
2018-12-22T11:03:14.652Z,10.49
2018-12-22T11:05:41.961Z,10.49
2018-12-22T11:08:09.763Z,10.54
2018-12-22T11:10:37.562Z,10.47
2018-12-22T11:13:05.575Z,10.48
2018-12-22T11:15:32.894Z,10.68
2018-12-22T11:18:00.468Z,10.72
2018-12-22T11:20:28.196Z,10.89
2018-12-22T11:22:55.812Z,11.06
2018-12-22T11:25:25.404Z,11.12
2018-12-22T11:27:53.072Z,11.18
2018-12-22T11:30:38.741Z,11.18
2018-12-22T11:33:06.477Z,11.31
2018-12-22T11:35:33.797Z,11.33
2018-12-22T11:38:01.461Z,11.45
2018-12-22T11:40:29.003Z,11.54
2018-12-22T11:42:56.489Z,11.63
2018-12-22T11:45:24.082Z,11.72
2018-12-22T11:49:02.639Z,11.81
2018-12-22T11:51:30.256Z,12.01
2018-12-22T11:53:57.710Z,12.23
2018-12-22T11:56:32.105Z,12.44
2018-12-22T11:58:59.677Z,12.72
2018-12-22T12:01:27.146Z,13.15
2018-12-22T12:03:54.789Z,13.56
2018-12-22T12:06:22.360Z,13.88
2018-12-22T12:08:49.980Z,14.07
2018-12-22T12:11:17.697Z,14.30
2018-12-22T12:13:45.371Z,14.42
2018-12-22T12:16:38.386Z,14.50
2018-12-22T12:19:13.616Z,14.47
2018-12-22T12:21:41.052Z,14.31
2018-12-22T12:24:08.554Z,14.06
2018-12-22T12:26:36.051Z,13.93
2018-12-22T12:29:03.614Z,13.80
2018-12-22T12:31:31.144Z,13.66
2018-12-22T12:33:58.903Z,13.48
2018-12-22T12:36:26.477Z,13.34
2018-12-22T12:38:53.971Z,13.20
2018-12-22T12:41:21.463Z,13.17
2018-12-22T12:43:49.074Z,13.05
2018-12-22T12:46:16.848Z,13.06
2018-12-22T12:48:44.445Z,12.94
2018-12-22T12:51:11.952Z,12.89
2018-12-22T12:53:39.364Z,12.76
2018-12-22T12:56:06.939Z,12.67
2018-12-22T12:58:34.345Z,12.65
2018-12-22T13:01:01.836Z,12.67
2018-12-22T13:03:29.163Z,12.75
2018-12-22T13:05:56.826Z,12.81
2018-12-22T13:08:24.408Z,12.75
2018-12-22T13:10:52.000Z,12.73
2018-12-22T13:13:43.145Z,12.72
2018-12-22T13:16:10.752Z,12.59
2018-12-22T13:18:38.359Z,12.65
2018-12-22T13:21:07.320Z,12.58
2018-12-22T13:23:34.907Z,12.60
2018-12-22T13:26:02.458Z,12.57
2018-12-22T13:28:29.958Z,12.65
2018-12-22T13:30:57.456Z,12.70
2018-12-22T13:33:25.427Z,12.69
2018-12-22T13:35:53.174Z,12.75
2018-12-22T13:38:20.764Z,12.82
2018-12-22T13:40:48.298Z,12.94
2018-12-22T13:43:16.038Z,13.00
2018-12-22T13:45:43.521Z,13.11
2018-12-22T13:48:11.156Z,13.20
2018-12-22T13:50:39.164Z,13.19
2018-12-22T13:53:06.984Z,13.15
2018-12-22T13:55:34.490Z,13.05
2018-12-22T13:58:02.069Z,13.07
2018-12-22T14:00:32.630Z,13.01
2018-12-22T14:03:00.239Z,12.94
2018-12-22T14:05:27.769Z,12.84
2018-12-22T14:07:55.202Z,12.74
2018-12-22T14:10:22.709Z,12.73
2018-12-22T14:12:50.362Z,12.76
2018-12-22T14:15:19.843Z,12.79
2018-12-22T14:18:01.021Z,12.62
2018-12-22T14:20:30.019Z,12.43
2018-12-22T14:22:57.610Z,12.41
2018-12-22T14:25:28.435Z,12.27
2018-12-22T14:27:55.942Z,12.13
2018-12-22T14:30:23.518Z,12.15
2018-12-22T14:32:51.051Z,12.11
2018-12-22T14:35:54.377Z,12.04
2018-12-22T14:38:21.878Z,12.01
2018-12-22T14:40:49.351Z,12.04
2018-12-22T14:43:16.822Z,11.99
2018-12-22T14:45:44.394Z,11.96
2018-12-22T14:48:11.868Z,12.08
2018-12-22T14:50:39.235Z,12.24
2018-12-22T14:53:06.655Z,12.20
2018-12-22T14:55:34.134Z,12.12
2018-12-22T14:58:11.014Z,12.25
2018-12-22T15:00:38.514Z,12.17
2018-12-22T15:03:06.091Z,12.14
2018-12-22T15:05:33.484Z,12.04
2018-12-22T15:08:01.066Z,12.30
2018-12-22T15:10:31.520Z,12.41
2018-12-22T15:12:58.997Z,12.27
2018-12-22T15:15:26.452Z,12.14
2018-12-22T15:17:53.911Z,12.04
2018-12-22T15:20:23.781Z,11.93
2018-12-22T15:22:51.373Z,11.88
2018-12-22T15:25:18.998Z,11.86
2018-12-22T15:27:46.470Z,11.78
2018-12-22T15:30:14.310Z,11.71
2018-12-22T15:32:46.282Z,11.63
2018-12-22T15:35:11.649Z,11.64
2018-12-22T15:37:39.355Z,11.77
2018-12-22T15:40:07.469Z,11.84
2018-12-22T15:42:34.977Z,11.94
2018-12-22T15:45:02.596Z,11.89
2018-12-22T15:47:30.045Z,11.79
2018-12-22T15:49:57.588Z,11.66
2018-12-22T15:52:25.049Z,11.59
2018-12-22T15:54:53.069Z,11.50
2018-12-22T15:57:20.673Z,11.41
2018-12-22T15:59:48.309Z,11.36
2018-12-22T16:02:15.783Z,11.31
2018-12-22T16:04:43.414Z,11.17
2018-12-22T16:07:10.937Z,11.06
2018-12-22T16:09:38.419Z,10.94
2018-12-22T16:12:06.213Z,10.68
2018-12-22T16:14:33.766Z,10.61
2018-12-22T16:17:01.202Z,10.48
2018-12-22T16:19:28.699Z,10.34
2018-12-22T16:21:56.024Z,10.20
2018-12-22T16:24:23.600Z,10.15
2018-12-22T16:26:51.011Z,10.15
2018-12-22T16:29:25.607Z,10.04
2018-12-22T16:31:53.332Z,9.88
2018-12-22T16:34:20.800Z,9.91
2018-12-22T16:36:48.382Z,9.93
2018-12-22T16:39:15.868Z,9.90
2018-12-22T16:41:43.428Z,9.76
2018-12-22T16:44:14.307Z,9.60
2018-12-22T16:46:41.812Z,9.40
2018-12-22T16:49:09.385Z,9.41
2018-12-22T16:51:37.182Z,9.37
2018-12-22T16:54:04.931Z,9.44
2018-12-22T16:56:32.416Z,9.45
2018-12-22T16:59:00.732Z,9.32
2018-12-22T17:01:37.866Z,9.09
2018-12-22T17:04:05.488Z,9.12
2018-12-22T17:06:33.719Z,9.08
2018-12-22T17:09:01.120Z,9.08
2018-12-22T17:11:28.886Z,9.00
2018-12-22T17:13:56.465Z,8.94
2018-12-22T17:16:24.133Z,8.99
2018-12-22T17:18:51.659Z,9.02
2018-12-22T17:21:24.656Z,9.11
2018-12-22T17:24:08.036Z,9.33
2018-12-22T17:26:38.495Z,9.46
2018-12-22T17:29:05.966Z,9.52
2018-12-22T17:31:33.532Z,9.46
2018-12-22T17:34:01.120Z,9.43
2018-12-22T17:36:28.691Z,9.39
2018-12-22T17:38:56.169Z,9.57
2018-12-22T17:41:23.772Z,9.68
2018-12-22T17:43:51.237Z,9.69
2018-12-22T17:46:18.793Z,9.85
2018-12-22T17:48:46.381Z,9.99
2018-12-22T17:51:13.861Z,9.99
2018-12-22T17:53:41.848Z,10.12
2018-12-22T17:56:09.387Z,10.04
2018-12-22T17:58:36.987Z,10.13
2018-12-22T18:01:04.663Z,10.08
2018-12-22T18:03:35.551Z,10.02
2018-12-22T18:06:03.169Z,10.03
2018-12-22T18:08:30.615Z,10.02
2018-12-22T18:10:58.403Z,10.13
2018-12-22T18:13:25.783Z,10.10
2018-12-22T18:15:53.211Z,10.05
2018-12-22T18:18:20.736Z,10.05
2018-12-22T18:20:48.069Z,10.20
2018-12-22T18:23:15.657Z,10.17
2018-12-22T18:25:43.315Z,10.09
2018-12-22T18:28:10.914Z,10.13
2018-12-22T18:30:38.413Z,10.11
2018-12-22T18:33:05.935Z,10.18
2018-12-22T18:35:33.265Z,10.21
2018-12-22T18:38:00.748Z,10.20
2018-12-22T18:40:29.147Z,10.16
2018-12-22T18:42:56.869Z,10.19
2018-12-22T18:45:24.231Z,10.23
2018-12-22T18:47:51.766Z,10.19
2018-12-22T18:50:22.373Z,10.23
2018-12-22T18:52:49.781Z,10.28
2018-12-22T18:55:17.423Z,10.28
2018-12-22T18:57:47.044Z,10.46
2018-12-22T19:00:20.590Z,10.49
2018-12-22T19:02:53.870Z,10.43
2018-12-22T19:05:22.041Z,10.38
2018-12-22T19:07:52.572Z,10.39
2018-12-22T19:10:23.813Z,10.35
2018-12-22T19:12:51.406Z,10.23
2018-12-22T19:15:19.018Z,10.33
2018-12-22T19:17:48.115Z,10.34
2018-12-22T19:20:22.381Z,10.43
2018-12-22T19:22:50.012Z,10.39
2018-12-22T19:25:17.630Z,10.27
2018-12-22T19:27:45.768Z,10.37
2018-12-22T19:30:13.286Z,10.32
2018-12-22T19:32:41.512Z,10.24
2018-12-22T19:35:09.162Z,10.33
2018-12-22T19:37:36.751Z,10.34
2018-12-22T19:40:06.911Z,10.37
2018-12-22T19:42:34.758Z,10.34
2018-12-22T19:45:02.749Z,10.21
2018-12-22T19:47:30.395Z,10.16
2018-12-22T19:49:58.001Z,10.12
2018-12-22T19:52:25.543Z,10.04
2018-12-22T19:54:53.021Z,10.01
2018-12-22T19:57:20.451Z,10.05
2018-12-22T19:59:47.943Z,9.94
2018-12-22T20:02:15.452Z,9.98
2018-12-22T20:04:42.910Z,10.04
2018-12-22T20:07:12.205Z,10.01
2018-12-22T20:09:39.784Z,10.01
2018-12-22T20:12:07.371Z,10.14
2018-12-22T20:14:35.090Z,10.16
2018-12-22T20:17:02.849Z,10.31
2018-12-22T20:19:30.282Z,10.27
2018-12-22T20:21:59.281Z,10.17
2018-12-22T20:24:26.947Z,10.08
2018-12-22T20:26:54.292Z,10.08
2018-12-22T20:29:22.515Z,10.11
2018-12-22T20:31:50.078Z,10.13
2018-12-22T20:34:17.602Z,10.22
2018-12-22T20:36:45.200Z,10.34
2018-12-22T20:39:12.697Z,10.41
2018-12-22T20:41:41.167Z,10.28
2018-12-22T20:44:08.690Z,10.27
2018-12-22T20:46:36.853Z,10.43
2018-12-22T20:49:04.338Z,10.37
2018-12-22T20:51:32.581Z,10.27
2018-12-22T20:54:00.756Z,10.31
2018-12-22T20:56:28.217Z,10.36
2018-12-22T20:58:55.761Z,10.31
2018-12-22T21:01:24.131Z,10.35
2018-12-22T21:03:51.688Z,10.28
2018-12-22T21:06:26.213Z,10.31
2018-12-22T21:08:53.830Z,10.54
2018-12-22T21:11:22.279Z,10.54
2018-12-22T21:13:50.463Z,10.47
2018-12-22T21:16:17.904Z,10.44
2018-12-22T21:18:45.729Z,10.41
2018-12-22T21:21:13.357Z,10.40
2018-12-22T21:23:40.877Z,10.33
2018-12-22T21:26:08.516Z,10.29
2018-12-22T21:28:38.062Z,10.28
2018-12-22T21:31:05.621Z,10.38
2018-12-22T21:33:33.187Z,10.49
2018-12-22T21:36:00.729Z,10.49
2018-12-22T21:38:28.353Z,10.50
2018-12-22T21:40:55.861Z,10.48
2018-12-22T21:43:23.369Z,10.51
2018-12-22T21:45:51.065Z,10.53
2018-12-22T21:48:18.571Z,10.39
2018-12-22T21:50:46.231Z,10.44
2018-12-22T21:53:13.710Z,10.49
2018-12-22T21:55:41.102Z,10.46
2018-12-22T21:58:08.614Z,10.51
2018-12-22T22:00:36.299Z,10.42
2018-12-22T22:03:03.830Z,10.27
2018-12-22T22:05:31.305Z,10.21
2018-12-22T22:07:58.676Z,10.08
2018-12-22T22:10:26.283Z,10.09
2018-12-22T22:12:53.780Z,10.06
2018-12-22T22:15:21.276Z,10.04
2018-12-22T22:17:48.820Z,10.04
2018-12-22T22:20:16.422Z,9.99
2018-12-22T22:22:44.095Z,9.92
2018-12-22T22:25:11.616Z,9.83
2018-12-22T22:27:39.282Z,9.68
2018-12-22T22:30:06.990Z,9.51
2018-12-22T22:32:34.518Z,9.42
2018-12-22T22:35:02.216Z,9.41
2018-12-22T22:37:29.612Z,9.47
2018-12-22T22:39:57.230Z,9.41
2018-12-22T22:42:24.812Z,9.35
2018-12-22T22:44:52.303Z,9.26
2018-12-22T22:47:19.818Z,9.33
2018-12-22T22:49:47.364Z,9.21
2018-12-22T22:52:14.924Z,9.05
2018-12-22T22:54:42.417Z,8.97
2018-12-22T22:57:10.068Z,8.83
2018-12-22T22:59:37.600Z,8.70
2018-12-22T23:02:05.352Z,8.57
2018-12-22T23:04:32.980Z,8.45
2018-12-22T23:07:00.531Z,8.39
2018-12-22T23:09:28.036Z,8.51
2018-12-22T23:11:55.674Z,8.61
2018-12-22T23:14:23.140Z,8.68
2018-12-22T23:16:50.615Z,8.70
2018-12-22T23:19:18.152Z,8.76
2018-12-22T23:21:45.533Z,8.83
2018-12-22T23:24:12.904Z,8.90
2018-12-22T23:26:40.767Z,8.99
2018-12-22T23:29:08.259Z,9.05
2018-12-22T23:31:35.858Z,9.11
2018-12-22T23:34:03.509Z,9.16
2018-12-22T23:36:31.247Z,9.22
2018-12-22T23:38:58.796Z,9.36
2018-12-22T23:41:26.382Z,9.43
2018-12-22T23:43:54.127Z,9.43
2018-12-22T23:46:21.493Z,9.46
2018-12-22T23:48:49.417Z,9.47
2018-12-22T23:51:16.908Z,9.64
2018-12-22T23:53:44.403Z,9.77
2018-12-22T23:56:12.023Z,9.61
2018-12-22T23:58:39.659Z,9.32
